• Join FlightAware (Why Join?)
  • Login
  • US Flag 
12:25AM EDT


 

Airport Tracker/Info


-or-


 

Live Flight TrackerFlight Track Log ✈ FLG4262 ✈ 27-Sep-2013 ✈ KBGM - KDTW

Flight Track Log - Related Links

Times and Time Zones

All times are in EDT time to prevent confusion due to time zone crossing. See the FLG4262 flight status page for this flight to view local times or setup timezone preferences in your user account.

Time Position Orientation Groundspeed Altitude Reporting Facility
EDT Latitude Longitude Course Direction KTS MPH feet Rate Location/Type
05:45PM 42.2728 -76.1492 291° West 238 274 6,500  Level Cleveland Center
05:46PM 42.2245 -76.5083 291° West  Level Estimated
05:46PM 42.3072 -76.2692 291° West 276 318 9,700  Level Cleveland Center
05:47PM 42.2281 -76.6405 287° West  Level Estimated
05:47PM 42.3364 -76.3761 290° West 297 342 11,500  Level Cleveland Center
05:48PM 42.2316 -76.7727 294° West  Level Estimated
05:48PM 42.3653 -76.4825 290° West 330 380 12,800  Level Cleveland Center
05:49PM 42.2349 -76.9049 289° West  Level Estimated
05:49PM 42.4069 -76.6331 291° West 357 411 14,600  Level Cleveland Center
05:50PM 42.4414 -76.7619 290° West 367 422 16,100 1,320 Climbing Cleveland Center
05:51PM 42.4761 -76.8936 290° West 371 427 17,400 960 Climbing Cleveland Center
05:52PM 42.5128 -77.0286 290° West 380 437 18,200 900 Climbing Cleveland Center
05:53PM 42.5489 -77.1675 289° West 390 449 19,300 1,200 Climbing Cleveland Center
05:54PM 42.5936 -77.3356 290° West 395 455 20,700 1,140 Climbing Cleveland Center
05:55PM 42.6286 -77.4664 290° West 395 455 21,700 960 Climbing Cleveland Center
05:56PM 42.6650 -77.6061 290° West 392 451 22,800 840 Climbing Cleveland Center
05:57PM 42.7011 -77.7447 290° West 396 456 23,500 600 Climbing Cleveland Center
05:58PM 42.7461 -77.9203 289° West 414 476 24,100 480 Climbing Cleveland Center
05:59PM 42.7833 -78.0700 289° West 419 482 24,600 480 Climbing Cleveland Center
06:00PM 42.8225 -78.2211 290° West 427 491 25,100 480 Climbing Cleveland Center
06:01PM 42.8603 -78.3725 289° West 425 489 25,600 420 Climbing Cleveland Center
06:03PM 42.8989 -78.5261 289° West 428 493 26,000 180 Climbing Cleveland Center
06:04PM 42.9217 -78.6864 281° West 438 504 26,000  Level Cleveland Center
06:05PM 42.8956 -78.8800 260° West 456 525 26,000  Level Cleveland Center
06:06PM 42.8689 -79.0600 259° West 457 526 26,000  Level Cleveland Center
06:07PM 42.8436 -79.2311 259° West 462 532 26,000  Level Cleveland Center
06:08PM 42.8181 -79.4042 259° West 467 537 26,000  Level Cleveland Center
06:09PM 42.7911 -79.5761 258° West 467 537 26,000  Level Cleveland Center
06:10PM 42.7594 -79.7844 258° West 469 540 26,000  Level Cleveland Center
06:11PM 42.7464 -79.9578 264° West 463 533 26,000  Level Cleveland Center
06:12PM 42.7383 -80.1475 267° West 466 536 26,000  Level Cleveland Center
06:13PM 42.7300 -80.3128 266° West 463 533 26,000  Level Cleveland Center
06:14PM 42.7231 -80.4883 267° West 462 532 26,000  Level Cleveland Center
06:15PM 42.7150 -80.6636 266° West 461 531 26,000  Level Cleveland Center
06:16PM 42.7064 -80.8731 267° West 471 542 26,000  Level Cleveland Center
06:17PM 42.6878 -81.0492 262° West 469 540 26,000  Level Cleveland Center
06:18PM 42.6672 -81.2233 261° West 466 536 26,000  Level Cleveland Center
06:19PM 42.6469 -81.3975 261° West 465 535 26,000 -420 Level Cleveland Center
06:20PM 42.6264 -81.5717 261° West 465 535 25,200 -1,680 Descending Cleveland Center
06:21PM 42.6056 -81.7494 261° West 472 543 22,600 -2,520 Descending Cleveland Center
06:22PM 42.5850 -81.9181 261° West 459 528 20,100 -2,280 Descending Cleveland Center
06:23PM 42.5658 -82.0753 261° West 429 494 17,900 -2,520 Descending Cleveland Center
06:24PM 42.5517 -82.2153 262° West 422 486 15,700 -2,940 Descending Cleveland Center
06:24PM 42.5422 -82.2647 255° West 426 490 14,900 -2,640 Descending Cleveland Center
06:25PM 42.5244 -82.4297 262° West 417 480 12,300 -2,460 Descending Cleveland Center
06:25PM 42.5236 -82.4189 96° East 420 483 12,400 -300 Climbing Cleveland Center
06:26PM 42.5028 -82.5600 259° West 294 338 12,000 -420 Descending Cleveland Center
06:26PM 42.5042 -82.5497 80° East 359 413 12,000 -1,980 Level Cleveland Center
06:27PM 42.4661 -82.6628 246° West 309 356 10,000 -1,800 Descending Cleveland Center
06:27PM 42.4681 -82.6550 71° East 315 362 10,200 -1,020 Climbing Cleveland Center
06:28PM 42.4317 -82.7628 245° Southwest 275 316 9,000 -1,200 Descending Cleveland Center
06:28PM 42.4317 -82.7547 90° East 303 349 9,000 -660 Level Cleveland Center
06:29PM 42.4031 -82.8597 250° West 262 302 8,300 -1,080 Descending Cleveland Center
06:30PM 42.3950 -82.9500 263° West 251 289 6,900 -1,380 Descending Cleveland Center
06:30PM 42.3933 -82.9533 236° Southwest 253 291 6,900 -900 Level Cleveland Center
06:31PM 42.3844 -83.0364 262° West 248 285 6,100 -900 Descending Cleveland Center
06:31PM 42.3825 -83.0450 253° West 249 287 6,000 -1,140 Descending Cleveland Center
06:33PM 42.3722 -83.1375 261° West 248 285 4,700 -1,140 Descending Cleveland Center
06:33PM 42.3414 -83.2167 242° Southwest 215 247 3,900 -780 Descending Cleveland Center
06:34PM 42.3408 -83.2131 102° East 234 269 3,900 -1,320 Level Cleveland Center
06:34PM 42.3081 -83.2686 231° Southwest 190 219 2,700 -1,260 Descending Cleveland Center
06:35PM 42.3053 -83.2697 196° South 214 246 2,600 -900 Descending Cleveland Center
06:35PM 42.2636 -83.3019 210° Southwest 146 168 1,800 -1,020 Descending Cleveland Center
06:36PM 42.2553 -83.3069 204° Southwest 182 209 1,600 -720 Descending Cleveland Center
06:36PM 42.2281 -83.3278 210° Southwest 134 154 1,000 -600 Descending Cleveland Center
06:37PM 42.2289 -83.3256 63° Northeast 155 178 1,000  Level Cleveland Center